createdAt,value
2019-02-04T00:00:35.050Z,4.73
2019-02-04T00:03:22.590Z,3.73
2019-02-04T00:06:10.002Z,3.70
2019-02-04T00:08:57.679Z,3.97
2019-02-04T00:11:45.297Z,4.17
2019-02-04T00:14:32.886Z,3.43
2019-02-04T00:17:20.399Z,3.43
2019-02-04T00:20:08.294Z,3.27
2019-02-04T00:22:55.930Z,3.57
2019-02-04T00:25:43.672Z,4.33
2019-02-04T00:28:30.870Z,3.83
2019-02-04T00:31:18.249Z,3.40
2019-02-04T00:34:05.895Z,4.23
2019-02-04T00:36:53.661Z,3.40
2019-02-04T00:39:41.513Z,3.90
2019-02-04T00:42:29.587Z,5.07
2019-02-04T00:45:17.830Z,3.77
2019-02-04T00:48:05.056Z,3.57
2019-02-04T00:50:52.608Z,3.50
2019-02-04T00:53:39.851Z,3.00
2019-02-04T00:56:27.733Z,4.03
2019-02-04T00:59:15.523Z,4.20
2019-02-04T01:02:04.904Z,3.93
2019-02-04T01:04:52.879Z,4.33
2019-02-04T01:07:40.495Z,3.27
2019-02-04T01:10:28.312Z,4.13
2019-02-04T01:13:15.574Z,3.27
2019-02-04T01:16:03.393Z,3.50
2019-02-04T01:18:51.134Z,3.97
2019-02-04T01:21:38.413Z,3.23
2019-02-04T01:24:26.080Z,3.30
2019-02-04T01:27:13.422Z,3.37
2019-02-04T01:30:00.743Z,4.03
2019-02-04T01:32:48.713Z,3.43
2019-02-04T01:35:36.535Z,3.50
2019-02-04T01:38:24.154Z,2.80
2019-02-04T01:41:11.780Z,3.40
2019-02-04T01:44:00.201Z,3.30
2019-02-04T01:46:47.821Z,3.77
2019-02-04T01:49:35.668Z,3.33
2019-02-04T01:52:23.466Z,3.23
2019-02-04T01:55:11.673Z,3.20
2019-02-04T01:58:00.527Z,4.37
2019-02-04T02:00:47.740Z,3.50
2019-02-04T02:03:35.318Z,3.43
2019-02-04T02:06:23.376Z,3.83
2019-02-04T02:09:22.697Z,3.20
2019-02-04T02:12:10.689Z,3.20
2019-02-04T02:14:58.901Z,3.13
2019-02-04T02:17:46.645Z,3.60
2019-02-04T02:20:34.554Z,3.10
2019-02-04T02:23:22.509Z,5.17
2019-02-04T02:26:11.048Z,3.80
2019-02-04T02:28:58.517Z,3.87
2019-02-04T02:31:46.384Z,3.33
2019-02-04T02:34:34.058Z,3.47
2019-02-04T02:37:21.712Z,2.83
2019-02-04T02:40:11.986Z,2.40
2019-02-04T02:42:59.687Z,2.73
2019-02-04T02:45:47.580Z,2.90
2019-02-04T02:48:35.571Z,2.80
2019-02-04T02:51:23.880Z,2.77
2019-02-04T02:54:11.633Z,2.80
2019-02-04T02:56:59.478Z,3.73
2019-02-04T02:59:46.797Z,2.87
2019-02-04T03:02:34.381Z,3.20
2019-02-04T03:05:22.285Z,2.80
2019-02-04T03:08:09.365Z,3.40
2019-02-04T03:10:57.550Z,2.90
2019-02-04T03:13:45.424Z,2.50
2019-02-04T03:16:33.771Z,2.90
2019-02-04T03:19:21.224Z,3.50
2019-02-04T03:22:09.005Z,2.70
2019-02-04T03:24:56.471Z,3.33
2019-02-04T03:27:44.815Z,3.53
2019-02-04T03:30:35.281Z,3.43
2019-02-04T03:33:23.172Z,3.43
2019-02-04T03:36:12.529Z,3.20
2019-02-04T03:38:59.988Z,3.10
2019-02-04T03:41:48.940Z,4.57
2019-02-04T03:44:37.647Z,3.77
2019-02-04T03:47:25.369Z,3.43
2019-02-04T03:50:12.733Z,3.70
2019-02-04T03:53:00.342Z,2.83
2019-02-04T03:55:48.104Z,3.17
2019-02-04T03:58:36.173Z,3.33
2019-02-04T04:01:23.922Z,3.33
2019-02-04T04:04:11.748Z,3.23
2019-02-04T04:06:59.794Z,3.50
2019-02-04T04:09:47.506Z,3.20
2019-02-04T04:12:35.369Z,3.70
2019-02-04T04:15:22.748Z,3.17
2019-02-04T04:18:16.056Z,3.20
2019-02-04T04:20:58.982Z,3.30
2019-02-04T04:23:46.771Z,3.07
2019-02-04T04:26:34.207Z,3.17
2019-02-04T04:29:21.608Z,3.03
2019-02-04T04:32:08.868Z,3.40
2019-02-04T04:34:56.232Z,3.27
2019-02-04T04:37:44.488Z,3.17
2019-02-04T04:40:32.484Z,3.50
2019-02-04T04:43:19.675Z,3.23
2019-02-04T04:46:07.512Z,3.60
2019-02-04T04:48:55.713Z,3.50
2019-02-04T04:51:43.559Z,4.03
2019-02-04T04:54:31.374Z,3.60
2019-02-04T04:57:19.551Z,3.37
2019-02-04T05:00:09.136Z,3.80
2019-02-04T05:02:56.899Z,3.33
2019-02-04T05:05:44.862Z,5.33
2019-02-04T05:08:33.842Z,3.70
2019-02-04T05:11:21.776Z,3.90
2019-02-04T05:14:09.333Z,3.63
2019-02-04T05:16:58.613Z,3.47
2019-02-04T05:19:47.142Z,3.40
2019-02-04T05:22:34.886Z,3.77
2019-02-04T05:25:22.589Z,4.93
2019-02-04T05:28:10.984Z,4.13
2019-02-04T05:30:58.148Z,4.33
2019-02-04T05:33:45.572Z,3.83
2019-02-04T05:36:54.605Z,3.30
2019-02-04T05:39:42.109Z,3.30
2019-02-04T05:42:29.452Z,3.60
2019-02-04T05:45:17.475Z,3.50
2019-02-04T05:48:04.895Z,3.90
2019-02-04T05:50:53.593Z,4.13
2019-02-04T05:53:41.519Z,3.87
2019-02-04T05:56:29.325Z,3.90
2019-02-04T05:59:18.267Z,4.27
2019-02-04T06:02:06.032Z,3.73
2019-02-04T06:04:54.670Z,4.17
2019-02-04T06:07:42.373Z,3.80
2019-02-04T06:10:31.224Z,4.10
2019-02-04T06:13:23.389Z,4.30
2019-02-04T06:16:10.922Z,4.77
2019-02-04T06:19:01.021Z,4.20
2019-02-04T06:21:47.048Z,4.73
2019-02-04T06:24:34.445Z,4.10
2019-02-04T06:27:21.927Z,4.63
2019-02-04T06:30:10.246Z,4.33
2019-02-04T06:32:57.620Z,4.30
2019-02-04T06:35:45.541Z,5.33
2019-02-04T06:38:33.346Z,4.50
2019-02-04T06:41:21.501Z,4.83
2019-02-04T06:44:09.032Z,4.63
2019-02-04T06:46:56.177Z,4.33
2019-02-04T06:49:43.937Z,3.90
2019-02-04T06:52:31.460Z,3.97
2019-02-04T06:55:23.354Z,3.63
2019-02-04T06:58:10.909Z,3.27
2019-02-04T07:00:58.564Z,3.40
2019-02-04T07:03:45.852Z,3.40
2019-02-04T07:06:34.474Z,3.33
2019-02-04T07:09:22.466Z,3.03
2019-02-04T07:12:09.965Z,3.37
2019-02-04T07:14:57.629Z,3.90
2019-02-04T07:17:45.522Z,3.30
2019-02-04T07:20:33.986Z,3.73
2019-02-04T07:23:21.873Z,3.60
2019-02-04T07:26:09.643Z,3.50
2019-02-04T07:28:56.901Z,3.73
2019-02-04T07:31:44.097Z,3.50
2019-02-04T07:34:31.258Z,3.10
2019-02-04T07:37:19.293Z,3.30
2019-02-04T07:40:09.588Z,4.23
2019-02-04T07:42:57.077Z,5.07
2019-02-04T07:45:44.344Z,4.07
2019-02-04T07:48:31.655Z,3.40
2019-02-04T07:51:19.422Z,3.43
2019-02-04T07:54:06.657Z,4.30
2019-02-04T07:56:54.474Z,3.57
2019-02-04T07:59:42.497Z,4.13
2019-02-04T08:02:29.710Z,3.77
2019-02-04T08:05:18.316Z,4.03
2019-02-04T08:08:05.945Z,4.20
2019-02-04T08:10:53.968Z,5.93
2019-02-04T08:13:41.887Z,5.10
2019-02-04T08:16:29.375Z,4.43
2019-02-04T08:19:17.399Z,3.70
2019-02-04T08:22:05.157Z,3.40
2019-02-04T08:24:52.264Z,3.63
2019-02-04T08:27:39.798Z,3.70
2019-02-04T08:30:28.323Z,3.50
2019-02-04T08:33:15.778Z,3.50
2019-02-04T08:36:03.219Z,4.73
2019-02-04T08:38:50.787Z,3.73
2019-02-04T08:41:38.772Z,4.43
2019-02-04T08:44:26.584Z,4.37
2019-02-04T08:47:22.521Z,3.87
2019-02-04T08:50:03.004Z,4.30
2019-02-04T08:52:51.189Z,4.83
2019-02-04T08:55:38.740Z,4.40
2019-02-04T08:58:25.781Z,4.87
2019-02-04T09:01:13.233Z,4.50
2019-02-04T09:04:00.310Z,4.73
2019-02-04T09:06:48.069Z,4.77
2019-02-04T09:09:35.544Z,4.33
2019-02-04T09:12:23.417Z,4.83
2019-02-04T09:15:11.743Z,4.17
2019-02-04T09:17:59.611Z,4.63
2019-02-04T09:20:47.040Z,4.60
2019-02-04T09:23:35.196Z,4.90
2019-02-04T09:26:22.745Z,5.17
2019-02-04T09:29:10.467Z,4.07
2019-02-04T09:31:58.088Z,5.17
2019-02-04T09:34:45.831Z,5.53
2019-02-04T09:37:33.036Z,4.37
2019-02-04T09:40:22.181Z,4.40
2019-02-04T09:43:09.820Z,4.30
2019-02-04T09:45:57.812Z,4.50
2019-02-04T09:48:44.991Z,5.13
2019-02-04T09:51:32.236Z,3.93
2019-02-04T09:54:19.930Z,4.37
2019-02-04T09:57:07.810Z,3.97
2019-02-04T09:59:55.563Z,5.10
2019-02-04T10:02:43.282Z,5.60
2019-02-04T10:05:30.826Z,5.43
2019-02-04T10:08:18.030Z,5.30
2019-02-04T10:11:05.757Z,5.03
2019-02-04T10:13:53.509Z,5.00
2019-02-04T10:16:40.812Z,5.43
2019-02-04T10:19:28.808Z,5.67
2019-02-04T10:22:16.234Z,7.00
2019-02-04T10:25:03.599Z,11.83
2019-02-04T10:27:51.832Z,12.03
2019-02-04T10:30:39.330Z,10.63
2019-02-04T10:33:26.570Z,13.87
2019-02-04T10:36:14.149Z,16.60
2019-02-04T10:39:01.523Z,7.73
2019-02-04T10:41:49.092Z,13.70
2019-02-04T10:44:36.607Z,12.23
2019-02-04T10:47:24.603Z,9.43
2019-02-04T10:50:16.899Z,7.77
2019-02-04T10:53:06.362Z,10.93
2019-02-04T10:55:54.743Z,9.27
2019-02-04T10:58:42.333Z,9.83
2019-02-04T11:01:30.145Z,7.73
2019-02-04T11:04:18.032Z,9.87
2019-02-04T11:07:06.129Z,7.10
2019-02-04T11:09:53.378Z,7.07
2019-02-04T11:12:41.105Z,6.57
2019-02-04T11:15:28.830Z,7.03
2019-02-04T11:18:17.023Z,6.93
2019-02-04T11:21:04.698Z,6.67
2019-02-04T11:23:52.370Z,6.53
2019-02-04T11:26:39.563Z,8.80
2019-02-04T11:29:27.149Z,6.63
2019-02-04T11:32:14.794Z,6.90
2019-02-04T11:35:02.325Z,6.93
2019-02-04T11:37:49.778Z,7.13
2019-02-04T11:40:37.699Z,7.27
2019-02-04T11:43:25.018Z,6.30
2019-02-04T11:46:12.735Z,7.60
2019-02-04T11:49:00.196Z,9.20
2019-02-04T11:51:48.240Z,8.40
2019-02-04T11:54:36.281Z,7.97
2019-02-04T11:57:23.882Z,8.20
2019-02-04T12:00:13.191Z,7.73
2019-02-04T12:03:00.950Z,7.07
2019-02-04T12:05:48.833Z,7.07
2019-02-04T12:08:36.182Z,5.83
2019-02-04T12:11:23.955Z,6.33
2019-02-04T12:14:11.377Z,4.57
2019-02-04T12:16:59.537Z,4.87
2019-02-04T12:19:46.841Z,5.00
2019-02-04T12:22:34.574Z,4.83
2019-02-04T12:25:23.115Z,4.83
2019-02-04T12:28:11.087Z,5.07
2019-02-04T12:30:58.562Z,5.27
2019-02-04T12:33:46.228Z,4.30
2019-02-04T12:36:33.608Z,4.10
2019-02-04T12:39:23.063Z,4.23
2019-02-04T12:42:10.611Z,4.47
2019-02-04T12:44:57.867Z,4.17
2019-02-04T12:47:49.191Z,3.83
2019-02-04T12:50:37.980Z,3.97
2019-02-04T12:53:25.291Z,3.70
2019-02-04T12:56:12.820Z,4.07
2019-02-04T12:59:00.727Z,3.80
2019-02-04T13:01:48.032Z,3.53
2019-02-04T13:04:35.420Z,4.40
2019-02-04T13:07:23.050Z,4.30
2019-02-04T13:10:11.417Z,4.00
2019-02-04T13:12:58.913Z,5.43
2019-02-04T13:15:46.411Z,4.40
2019-02-04T13:18:33.995Z,4.70
2019-02-04T13:21:21.623Z,5.53
2019-02-04T13:24:09.236Z,4.40
2019-02-04T13:26:56.580Z,4.30
2019-02-04T13:29:44.044Z,4.63
2019-02-04T13:32:31.319Z,4.67
2019-02-04T13:35:19.090Z,4.63
2019-02-04T13:38:06.900Z,4.40
2019-02-04T13:40:54.445Z,3.67
2019-02-04T13:43:42.168Z,4.27
2019-02-04T13:46:29.670Z,4.00
2019-02-04T13:49:17.157Z,5.37
2019-02-04T13:52:11.692Z,4.73
2019-02-04T13:54:58.850Z,4.63
2019-02-04T13:57:46.832Z,4.30
2019-02-04T14:00:34.629Z,3.90
2019-02-04T14:03:22.364Z,3.63
2019-02-04T14:06:10.061Z,4.80
2019-02-04T14:08:57.753Z,4.73
2019-02-04T14:11:45.055Z,4.17
2019-02-04T14:14:32.283Z,3.40
2019-02-04T14:17:20.269Z,3.50
2019-02-04T14:20:09.480Z,3.43
2019-02-04T14:22:56.871Z,3.83
2019-02-04T14:25:44.384Z,3.17
2019-02-04T14:28:32.240Z,3.80
2019-02-04T14:31:19.506Z,3.53
2019-02-04T14:34:06.787Z,3.50
2019-02-04T14:36:54.429Z,3.70
2019-02-04T14:39:41.745Z,3.97
2019-02-04T14:42:28.925Z,3.73
2019-02-04T14:45:25.295Z,3.63
2019-02-04T14:48:15.775Z,3.33
2019-02-04T14:51:08.773Z,3.37
2019-02-04T14:54:04.221Z,3.60
2019-02-04T14:57:03.452Z,3.30
2019-02-04T14:59:54.042Z,3.53
2019-02-04T15:03:01.115Z,3.23
2019-02-04T15:05:58.093Z,3.53
2019-02-04T15:09:06.619Z,3.90
2019-02-04T15:12:16.772Z,3.43
2019-02-04T15:15:29.485Z,3.70
2019-02-04T15:18:20.978Z,3.63
2019-02-04T15:21:15.683Z,4.63
2019-02-04T15:24:12.026Z,4.60
2019-02-04T15:27:17.624Z,4.17
2019-02-04T15:30:36.226Z,4.23
2019-02-04T15:33:35.724Z,4.37
2019-02-04T15:36:33.996Z,5.20
2019-02-04T15:39:35.700Z,4.67
2019-02-04T15:42:41.446Z,5.50
2019-02-04T15:45:51.093Z,4.97
2019-02-04T15:48:56.689Z,5.10
2019-02-04T15:51:50.171Z,5.27
2019-02-04T15:54:38.825Z,5.53
2019-02-04T15:57:26.571Z,5.17
2019-02-04T16:00:16.418Z,5.73
2019-02-04T16:03:04.087Z,5.87
2019-02-04T16:05:52.014Z,6.23
2019-02-04T16:08:40.176Z,6.20
2019-02-04T16:11:28.896Z,6.73
2019-02-04T16:14:16.319Z,6.70
2019-02-04T16:17:06.501Z,7.00
2019-02-04T16:19:53.956Z,7.00
2019-02-04T16:22:41.540Z,7.67
2019-02-04T16:25:30.239Z,8.33
2019-02-04T16:28:17.822Z,7.40
2019-02-04T16:31:05.484Z,6.67
2019-02-04T16:33:52.931Z,7.50
2019-02-04T16:36:41.054Z,6.73
2019-02-04T16:39:28.879Z,8.50
2019-02-04T16:42:16.254Z,6.43
2019-02-04T16:45:07.799Z,7.63
2019-02-04T16:47:55.891Z,5.40
2019-02-04T16:50:43.552Z,5.27
2019-02-04T16:53:32.082Z,6.20
2019-02-04T16:56:20.021Z,6.07
2019-02-04T16:59:08.763Z,6.23
2019-02-04T17:01:57.149Z,5.43
2019-02-04T17:04:45.292Z,4.67
2019-02-04T17:08:01.410Z,4.33
2019-02-04T17:10:49.342Z,4.97
2019-02-04T17:13:37.270Z,4.70
2019-02-04T17:16:27.428Z,5.73
2019-02-04T17:19:14.259Z,4.20
2019-02-04T17:22:02.373Z,5.17
2019-02-04T17:24:50.238Z,3.63
2019-02-04T17:27:37.940Z,5.23
2019-02-04T17:30:27.059Z,3.30
2019-02-04T17:33:14.364Z,3.87
2019-02-04T17:36:02.522Z,4.27
2019-02-04T17:38:50.017Z,3.27
2019-02-04T17:41:37.656Z,2.47
2019-02-04T17:44:25.915Z,2.67
2019-02-04T17:47:13.523Z,2.13
2019-02-04T17:50:02.588Z,2.27
2019-02-04T17:52:50.426Z,4.03
2019-02-04T17:55:38.099Z,2.73
2019-02-04T17:58:28.126Z,3.00
2019-02-04T18:01:16.126Z,2.37
2019-02-04T18:04:04.098Z,2.63
2019-02-04T18:06:51.818Z,2.67
2019-02-04T18:09:40.048Z,2.87
2019-02-04T18:12:28.529Z,2.87
2019-02-04T18:15:33.141Z,1.30
2019-02-04T18:18:23.568Z,2.03
2019-02-04T18:21:11.785Z,1.77
2019-02-04T18:23:59.411Z,1.80
2019-02-04T18:26:54.728Z,2.57
2019-02-04T18:30:10.025Z,2.93
2019-02-04T18:32:59.806Z,2.37
2019-02-04T18:35:48.321Z,1.80
2019-02-04T18:38:35.974Z,2.07
2019-02-04T18:41:43.536Z,1.83
2019-02-04T18:44:56.259Z,1.63
2019-02-04T18:47:21.778Z,2.73
2019-02-04T18:50:09.752Z,1.67
2019-02-04T18:53:14.547Z,1.80
2019-02-04T18:56:00.498Z,2.10
2019-02-04T18:58:49.054Z,2.33
2019-02-04T19:01:38.396Z,2.13
2019-02-04T19:04:26.095Z,2.00
2019-02-04T19:07:14.819Z,1.93
2019-02-04T19:10:02.794Z,3.00
2019-02-04T19:13:14.740Z,3.27
2019-02-04T19:16:21.115Z,3.30
2019-02-04T19:19:11.350Z,4.70
2019-02-04T19:22:08.565Z,3.07
2019-02-04T19:24:57.783Z,3.47
2019-02-04T19:27:45.516Z,3.10
2019-02-04T19:30:35.275Z,4.10
2019-02-04T19:33:26.942Z,4.13
2019-02-04T19:36:15.210Z,4.73
2019-02-04T19:39:05.454Z,3.70
2019-02-04T19:41:53.178Z,3.33
2019-02-04T19:44:40.902Z,3.60
2019-02-04T19:47:31.776Z,4.43
2019-02-04T19:50:21.318Z,6.00
2019-02-04T19:53:27.263Z,3.90
2019-02-04T19:56:17.545Z,3.40
2019-02-04T19:59:05.460Z,3.67
2019-02-04T20:01:58.283Z,3.93
2019-02-04T20:04:48.230Z,4.10
2019-02-04T20:07:39.699Z,3.27
2019-02-04T20:10:28.548Z,3.80
2019-02-04T20:13:16.271Z,4.87
2019-02-04T20:16:09.671Z,4.73
2019-02-04T20:18:59.059Z,4.40
2019-02-04T20:21:50.614Z,4.83
2019-02-04T20:24:38.386Z,3.37
2019-02-04T20:27:27.258Z,3.17
2019-02-04T20:30:18.261Z,4.00
2019-02-04T20:33:10.869Z,4.27
2019-02-04T20:35:59.028Z,4.57
2019-02-04T20:38:47.446Z,4.17
2019-02-04T20:41:39.192Z,5.90
2019-02-04T20:44:32.255Z,5.13
2019-02-04T20:47:20.804Z,4.57
2019-02-04T20:50:10.456Z,4.33
2019-02-04T20:52:58.089Z,4.93
2019-02-04T20:55:45.717Z,4.03
2019-02-04T20:58:33.771Z,3.27
2019-02-04T21:01:21.344Z,3.77
2019-02-04T21:04:10.502Z,3.50
2019-02-04T21:06:59.904Z,3.27
2019-02-04T21:09:47.900Z,3.47
2019-02-04T21:12:35.839Z,2.97
2019-02-04T21:15:25.371Z,2.73
2019-02-04T21:18:13.389Z,2.17
2019-02-04T21:21:01.411Z,2.10
2019-02-04T21:23:49.146Z,2.00
2019-02-04T21:26:36.929Z,2.40
2019-02-04T21:29:24.923Z,1.40
2019-02-04T21:32:15.547Z,1.30
2019-02-04T21:35:12.725Z,1.00
2019-02-04T21:38:01.113Z,0.80
2019-02-04T21:40:49.602Z,0.97
2019-02-04T21:43:38.688Z,0.53
2019-02-04T21:46:26.512Z,1.00
2019-02-04T21:49:16.128Z,0.40
2019-02-04T21:52:04.288Z,0.40
2019-02-04T21:55:08.444Z,0.40
2019-02-04T21:57:51.701Z,0.20
2019-02-04T22:00:40.569Z,0.27
2019-02-04T22:03:48.639Z,0.50
2019-02-04T22:06:38.586Z,0.20
2019-02-04T22:09:26.296Z,0.40
2019-02-04T22:12:15.443Z,0.30
2019-02-04T22:15:03.274Z,0.20
2019-02-04T22:17:52.185Z,0.33
2019-02-04T22:20:40.243Z,0.40
2019-02-04T22:23:28.086Z,0.30
2019-02-04T22:26:17.724Z,0.30
2019-02-04T22:29:05.984Z,0.27
2019-02-04T22:31:53.968Z,0.30
2019-02-04T22:34:42.378Z,0.50
2019-02-04T22:37:30.892Z,0.40
2019-02-04T22:40:23.099Z,0.30
2019-02-04T22:43:10.540Z,0.27
2019-02-04T22:45:58.967Z,0.30
2019-02-04T22:48:46.381Z,0.23
2019-02-04T22:51:34.733Z,0.40
2019-02-04T22:54:22.966Z,0.30
2019-02-04T22:57:21.232Z,0.37
2019-02-04T23:00:34.947Z,0.40
2019-02-04T23:03:24.070Z,1.27
2019-02-04T23:06:11.829Z,0.30
2019-02-04T23:08:59.686Z,0.30
2019-02-04T23:11:48.662Z,0.40
2019-02-04T23:17:43.814Z,1.30
2019-02-04T23:20:40.950Z,0.30
2019-02-04T23:23:29.052Z,0.50
2019-02-04T23:26:22.331Z,0.27
2019-02-04T23:29:32.295Z,0.80
2019-02-04T23:32:22.643Z,0.30
2019-02-04T23:35:17.236Z,0.50
2019-02-04T23:38:04.982Z,1.57
2019-02-04T23:40:52.678Z,1.57
2019-02-04T23:43:41.418Z,0.50
2019-02-04T23:46:29.244Z,0.40
2019-02-04T23:49:26.967Z,1.10
2019-02-04T23:52:14.794Z,0.80
2019-02-04T23:55:02.523Z,0.53
2019-02-04T23:57:51.765Z,1.47
